Time;durP1;ratioP1;P1;durP2;ratioP2;P2;SDS_P1;SDS_P2;PMS_P1;PMS_P2;Temp;Humidity;BMP_temperature;BMP_pressure;BME280_temperature;BME280_humidity;BME280_pressure;Samples;Min_cycle;Max_cycle;Signal;HPM_P1;HPM_P2
2021/05/19 00:00:36;;;;;;;2.40;2.20;;;11.80;99.90;;;;;;5074493;28;20403;-57
2021/05/19 00:03:02;;;;;;;2.70;2.33;;;11.80;99.90;;;;;;5075057;28;20167;-57
2021/05/19 00:05:28;;;;;;;2.50;2.30;;;11.80;99.90;;;;;;5075434;28;20210;-57
2021/05/19 00:07:53;;;;;;;2.40;1.80;;;11.90;99.90;;;;;;5075174;28;20167;-58
2021/05/19 00:10:19;;;;;;;2.57;2.37;;;11.90;99.90;;;;;;5059617;28;20252;-58
2021/05/19 00:12:44;;;;;;;2.23;2.03;;;11.90;99.90;;;;;;5055021;28;20706;-58
2021/05/19 00:15:11;;;;;;;2.33;2.03;;;11.80;99.90;;;;;;5054943;28;20197;-58
2021/05/19 00:17:44;;;;;;;1.83;1.73;;;11.80;99.90;;;;;;5054831;28;20203;-57
2021/05/19 00:20:12;;;;;;;2.20;2.00;;;11.90;99.90;;;;;;5047672;28;20954;-56
2021/05/19 00:22:37;;;;;;;4.70;2.67;;;11.90;99.90;;;;;;5055560;28;20413;-58
2021/05/19 00:25:04;;;;;;;2.07;1.87;;;12.00;99.90;;;;;;5059074;28;20431;-58
2021/05/19 00:27:30;;;;;;;2.70;2.47;;;11.90;99.90;;;;;;5055037;28;20589;-58
2021/05/19 00:29:55;;;;;;;2.00;1.80;;;12.00;99.90;;;;;;5054082;28;20415;-58
2021/05/19 00:32:21;;;;;;;1.70;1.53;;;11.90;99.90;;;;;;5054425;28;20182;-58
2021/05/19 00:34:48;;;;;;;1.73;1.63;;;11.90;99.90;;;;;;5054511;28;20194;-57
2021/05/19 00:37:16;;;;;;;5.03;2.13;;;12.00;99.90;;;;;;5054718;28;20241;-56
2021/05/19 00:39:43;;;;;;;2.40;2.17;;;12.00;99.90;;;;;;5054217;28;20409;-58
2021/05/19 00:42:14;;;;;;;2.30;2.10;;;12.00;99.90;;;;;;5054200;28;20447;-56
2021/05/19 00:44:40;;;;;;;2.33;2.13;;;12.10;99.90;;;;;;5054509;28;20460;-55
2021/05/19 00:47:06;;;;;;;2.10;2.00;;;12.20;99.90;;;;;;5054332;28;20742;-58
2021/05/19 00:49:31;;;;;;;4.30;2.33;;;12.10;99.90;;;;;;5053844;28;20466;-58
2021/05/19 00:51:57;;;;;;;1.93;1.73;;;12.10;99.90;;;;;;5054538;28;20266;-58
2021/05/19 00:54:23;;;;;;;2.30;2.10;;;12.20;99.90;;;;;;5054626;28;20212;-58
2021/05/19 00:56:50;;;;;;;2.10;1.90;;;12.30;99.90;;;;;;5054199;28;20718;-58
2021/05/19 00:59:16;;;;;;;3.17;2.40;;;12.20;99.90;;;;;;5046369;28;20224;-57
2021/05/19 01:01:42;;;;;;;3.13;2.13;;;12.30;99.90;;;;;;5054519;28;20416;-58
2021/05/19 01:04:08;;;;;;;2.10;1.90;;;12.40;99.90;;;;;;5054049;28;20416;-58
2021/05/19 01:11:49;;;;;;;3.73;2.07;;;12.40;99.90;;;;;;5054051;28;20388;-58
2021/05/19 01:14:15;;;;;;;3.30;2.47;;;12.40;99.90;;;;;;5078049;23;20529;-59
2021/05/19 01:16:41;;;;;;;2.40;2.20;;;12.40;99.90;;;;;;5051381;28;20209;-59
2021/05/19 01:19:06;;;;;;;2.40;2.00;;;12.40;99.90;;;;;;5053755;28;20210;-58
2021/05/19 01:21:34;;;;;;;3.17;2.20;;;12.40;99.90;;;;;;5054190;28;20475;-58
2021/05/19 01:24:00;;;;;;;3.67;2.13;;;12.40;99.90;;;;;;5053974;28;20257;-59
2021/05/19 01:26:26;;;;;;;2.10;1.90;;;12.40;99.90;;;;;;5053661;28;20467;-58
2021/05/19 01:28:51;;;;;;;2.37;2.17;;;12.30;99.90;;;;;;5053486;28;20417;-59
2021/05/19 01:31:17;;;;;;;5.53;1.90;;;12.30;99.90;;;;;;5053067;28;20178;-57
2021/05/19 01:33:48;;;;;;;2.17;1.97;;;12.30;99.90;;;;;;5054049;28;20194;-59
2021/05/19 01:36:15;;;;;;;2.70;2.50;;;12.30;99.90;;;;;;5072352;28;20190;-59
2021/05/19 01:38:41;;;;;;;4.33;2.37;;;12.30;99.90;;;;;;5061935;28;20460;-59
2021/05/19 01:41:07;;;;;;;3.93;2.50;;;12.20;99.90;;;;;;5053107;28;20759;-59
2021/05/19 01:43:33;;;;;;;2.33;2.10;;;12.20;99.90;;;;;;5053558;28;20643;-60
2021/05/19 01:46:01;;;;;;;2.27;2.07;;;12.10;99.90;;;;;;5067199;28;20678;-59
2021/05/19 01:48:28;;;;;;;3.43;3.03;;;12.20;99.90;;;;;;5069726;28;20413;-56
2021/05/19 01:50:54;;;;;;;2.33;2.13;;;12.30;99.90;;;;;;5053507;28;20412;-60
2021/05/19 01:53:20;;;;;;;2.10;2.00;;;12.20;99.90;;;;;;5053449;28;20404;-60
2021/05/19 01:55:46;;;;;;;2.20;1.60;;;12.20;99.90;;;;;;5053051;28;20433;-59
2021/05/19 01:58:12;;;;;;;2.20;1.80;;;12.20;99.90;;;;;;5067592;28;20446;-59
2021/05/19 02:00:37;;;;;;;2.87;2.20;;;12.20;99.90;;;;;;5073673;28;20561;-60
2021/05/19 02:03:06;;;;;;;3.07;2.50;;;12.20;99.90;;;;;;5067735;28;20527;-59
2021/05/19 02:05:34;;;;;;;1.87;1.77;;;12.20;99.90;;;;;;5053358;28;20183;-58
2021/05/19 02:08:01;;;;;;;3.90;3.57;;;12.10;99.90;;;;;;5053306;28;20433;-58
2021/05/19 02:10:27;;;;;;;4.50;2.60;;;11.90;99.90;;;;;;5053121;28;20440;-57
2021/05/19 02:12:53;;;;;;;3.60;3.10;;;11.90;99.90;;;;;;5053070;28;20772;-59
2021/05/19 02:15:19;;;;;;;3.50;2.80;;;11.90;99.90;;;;;;5052974;28;20449;-59
2021/05/19 02:17:47;;;;;;;3.60;3.30;;;12.00;99.90;;;;;;5052962;28;20237;-57
2021/05/19 02:20:18;;;;;;;4.33;3.93;;;12.00;99.90;;;;;;5046462;28;20828;-59
2021/05/19 02:22:44;;;;;;;4.10;3.80;;;12.00;99.90;;;;;;5051608;28;20409;-59
2021/05/19 02:25:11;;;;;;;3.40;3.10;;;12.10;99.90;;;;;;5057332;28;20462;-59
2021/05/19 02:27:36;;;;;;;4.77;3.70;;;12.20;99.90;;;;;;5035234;28;20431;-58
2021/05/19 02:30:05;;;;;;;4.03;3.73;;;12.20;99.90;;;;;;5052487;28;20751;-60
2021/05/19 02:32:31;;;;;;;4.40;4.00;;;12.20;99.90;;;;;;5052678;28;20405;-59
2021/05/19 02:34:57;;;;;;;3.40;3.10;;;12.30;99.90;;;;;;5052543;28;20444;-58
2021/05/19 02:37:22;;;;;;;3.03;2.60;;;12.10;99.90;;;;;;5053219;28;20448;-59
2021/05/19 02:39:48;;;;;;;3.67;3.07;;;12.00;99.90;;;;;;5053212;28;20168;-59
2021/05/19 02:42:15;;;;;;;3.90;2.80;;;12.00;99.90;;;;;;5052992;28;20179;-59
2021/05/19 02:44:40;;;;;;;2.90;2.70;;;12.00;99.90;;;;;;5053006;28;20853;-59
2021/05/19 02:47:06;;;;;;;3.20;2.40;;;12.10;99.90;;;;;;5052884;28;20496;-57
2021/05/19 02:49:32;;;;;;;2.90;2.70;;;12.20;99.90;;;;;;5052461;28;20198;-57
2021/05/19 02:51:58;;;;;;;2.60;2.27;;;12.10;99.90;;;;;;5052968;28;20230;-59
2021/05/19 02:54:24;;;;;;;2.53;2.33;;;12.10;99.90;;;;;;5056313;28;20968;-59
2021/05/19 02:56:50;;;;;;;2.67;2.47;;;12.10;99.90;;;;;;5056341;28;20213;-60
2021/05/19 02:59:16;;;;;;;2.40;2.20;;;12.20;99.90;;;;;;5049281;28;20421;-60
2021/05/19 03:01:42;;;;;;;2.47;2.27;;;12.10;99.90;;;;;;5057343;28;20413;-60
2021/05/19 03:04:08;;;;;;;1.93;1.63;;;12.20;99.90;;;;;;5056480;28;20177;-60
2021/05/19 03:06:34;;;;;;;2.30;1.90;;;12.20;99.90;;;;;;5075048;28;20494;-58
2021/05/19 03:09:00;;;;;;;4.57;2.13;;;12.20;99.90;;;;;;5057622;28;20769;-58
2021/05/19 03:11:26;;;;;;;3.10;1.77;;;12.30;99.90;;;;;;5056680;28;20415;-59
2021/05/19 03:13:51;;;;;;;2.77;2.57;;;12.30;99.90;;;;;;5056760;28;20167;-59
2021/05/19 03:16:17;;;;;;;5.30;2.40;;;12.20;99.90;;;;;;5056846;28;20659;-60
2021/05/19 03:18:42;;;;;;;2.77;2.53;;;12.20;99.90;;;;;;5055550;28;20272;-57
2021/05/19 03:21:09;;;;;;;2.23;1.90;;;12.10;99.90;;;;;;5056339;28;20169;-59
2021/05/19 03:23:35;;;;;;;3.23;2.50;;;12.00;99.90;;;;;;5056575;28;20635;-59
2021/05/19 03:26:00;;;;;;;2.20;2.10;;;12.10;99.90;;;;;;5055859;28;20421;-56
2021/05/19 03:28:26;;;;;;;4.07;2.40;;;11.90;99.90;;;;;;5056019;28;20181;-57
2021/05/19 03:30:52;;;;;;;2.73;2.50;;;11.70;99.90;;;;;;5055944;28;20174;-60
2021/05/19 03:33:18;;;;;;;3.20;2.90;;;11.80;99.90;;;;;;5056072;28;20208;-59
2021/05/19 03:35:44;;;;;;;2.70;2.50;;;11.90;99.90;;;;;;5056072;28;20461;-60
2021/05/19 03:38:10;;;;;;;4.90;2.80;;;12.00;99.90;;;;;;5053774;28;20489;-54
2021/05/19 03:40:35;;;;;;;2.73;2.37;;;12.00;99.90;;;;;;5052104;28;20179;-59
2021/05/19 03:43:01;;;;;;;2.80;2.60;;;12.00;99.90;;;;;;5055834;28;20193;-59
2021/05/19 03:45:27;;;;;;;2.53;2.33;;;12.00;99.90;;;;;;5047296;28;20597;-58
2021/05/19 03:47:53;;;;;;;2.43;2.23;;;11.90;99.90;;;;;;5075820;28;20426;-60
2021/05/19 03:50:22;;;;;;;2.90;2.20;;;11.90;99.90;;;;;;5056755;28;20182;-60
2021/05/19 03:52:47;;;;;;;2.43;2.20;;;12.00;99.90;;;;;;5055831;28;20928;-58
2021/05/19 03:55:14;;;;;;;2.07;1.87;;;12.00;99.90;;;;;;5055477;28;20433;-58
2021/05/19 03:57:40;;;;;;;4.00;2.20;;;12.00;99.90;;;;;;5065088;28;20247;-59
2021/05/19 04:00:12;;;;;;;3.20;2.43;;;12.10;99.90;;;;;;5075649;28;20761;-58
2021/05/19 04:02:38;;;;;;;2.83;2.43;;;12.00;99.90;;;;;;5074830;28;20412;-56
2021/05/19 04:05:04;;;;;;;2.43;2.23;;;12.10;99.90;;;;;;5075052;28;20913;-59
2021/05/19 04:07:30;;;;;;;3.10;2.27;;;12.20;99.90;;;;;;5068172;28;20190;-59
2021/05/19 04:09:55;;;;;;;2.70;2.13;;;12.20;99.90;;;;;;5055215;28;20405;-59
2021/05/19 04:12:21;;;;;;;2.80;2.60;;;12.10;99.90;;;;;;5055025;28;20182;-60
2021/05/19 04:14:47;;;;;;;2.53;2.33;;;12.10;99.90;;;;;;5055219;28;20670;-60
2021/05/19 04:17:12;;;;;;;2.30;2.07;;;12.10;99.90;;;;;;5055109;28;20245;-59
2021/05/19 04:19:38;;;;;;;2.50;2.30;;;12.20;99.90;;;;;;5048366;28;20243;-59
2021/05/19 04:22:04;;;;;;;2.13;2.03;;;12.20;99.90;;;;;;5055901;28;20170;-60
2021/05/19 04:24:29;;;;;;;2.03;1.90;;;12.20;99.90;;;;;;5056238;28;20198;-59
2021/05/19 04:26:55;;;;;;;2.23;2.03;;;12.30;99.90;;;;;;5057593;28;20175;-59
2021/05/19 04:29:20;;;;;;;2.60;2.40;;;12.30;99.90;;;;;;5054734;28;20225;-59
2021/05/19 04:31:46;;;;;;;2.70;2.50;;;12.40;99.90;;;;;;5054742;28;20242;-59
2021/05/19 04:34:12;;;;;;;2.40;2.20;;;12.30;99.90;;;;;;5054854;28;20171;-60
2021/05/19 04:36:37;;;;;;;2.93;2.63;;;12.40;99.90;;;;;;5054674;28;20534;-60
2021/05/19 04:39:05;;;;;;;3.97;2.90;;;12.20;99.90;;;;;;5054327;28;20697;-59
2021/05/19 04:41:30;;;;;;;2.90;2.60;;;12.20;99.90;;;;;;5054241;28;20171;-60
2021/05/19 04:43:56;;;;;;;2.87;2.67;;;12.30;99.90;;;;;;5054537;28;20411;-61
2021/05/19 04:46:22;;;;;;;2.70;2.50;;;12.30;99.90;;;;;;5054648;28;20212;-60
2021/05/19 04:48:49;;;;;;;2.97;2.77;;;12.30;99.90;;;;;;5054089;28;20175;-61
2021/05/19 04:51:15;;;;;;;2.47;2.27;;;12.30;99.90;;;;;;5054537;28;20542;-61
2021/05/19 04:53:40;;;;;;;4.37;3.30;;;12.10;99.90;;;;;;5036609;28;20414;-59
2021/05/19 04:56:06;;;;;;;3.00;2.70;;;12.20;99.90;;;;;;5054055;28;20434;-60
2021/05/19 04:58:32;;;;;;;3.03;2.83;;;12.30;99.90;;;;;;5048745;28;20206;-55
2021/05/19 05:00:58;;;;;;;4.53;2.90;;;12.30;99.90;;;;;;5050863;28;22243;-60
2021/05/19 05:03:23;;;;;;;3.00;2.70;;;12.40;99.90;;;;;;5053863;28;20165;-60
2021/05/19 05:05:53;;;;;;;3.33;2.70;;;12.50;99.90;;;;;;5066781;28;20925;-59
2021/05/19 05:08:19;;;;;;;2.87;2.67;;;12.50;99.90;;;;;;5058617;28;20359;-58
2021/05/19 05:10:45;;;;;;;2.10;2.00;;;12.60;99.90;;;;;;5054243;28;20811;-60
2021/05/19 05:13:10;;;;;;;3.10;2.80;;;12.60;99.90;;;;;;5053881;28;20539;-61
2021/05/19 05:15:36;;;;;;;3.07;2.80;;;12.20;99.90;;;;;;5053715;28;20218;-61
2021/05/19 05:18:02;;;;;;;2.40;2.30;;;12.20;99.90;;;;;;5052663;28;20190;-60
2021/05/19 05:20:27;;;;;;;2.90;2.70;;;12.30;99.90;;;;;;5053180;28;20186;-61
2021/05/19 05:22:53;;;;;;;3.23;2.93;;;12.40;99.90;;;;;;5054096;28;20223;-60
2021/05/19 05:25:20;;;;;;;3.40;3.10;;;12.60;99.90;;;;;;5053991;28;20260;-57
2021/05/19 05:27:48;;;;;;;5.30;4.80;;;12.60;99.90;;;;;;5053877;28;20168;-60
2021/05/19 05:30:16;;;;;;;4.37;3.40;;;12.70;99.90;;;;;;5053048;28;20423;-60
2021/05/19 05:32:42;;;;;;;3.70;3.20;;;12.60;99.90;;;;;;5053670;28;20780;-60
2021/05/19 05:35:08;;;;;;;3.77;2.93;;;12.20;99.90;;;;;;5053680;28;20439;-60
2021/05/19 05:37:34;;;;;;;3.27;3.07;;;12.40;99.90;;;;;;5053879;28;20956;-60
2021/05/19 05:40:00;;;;;;;3.60;3.27;;;12.40;99.90;;;;;;5053584;28;20456;-60
2021/05/19 05:42:26;;;;;;;8.70;3.93;;;12.60;99.90;;;;;;5053573;28;20593;-59
2021/05/19 05:44:52;;;;;;;3.73;3.10;;;12.90;99.90;;;;;;5053329;28;20586;-60
2021/05/19 05:47:17;;;;;;;3.80;3.03;;;13.00;99.90;;;;;;5053092;28;20415;-58
2021/05/19 05:49:43;;;;;;;3.97;3.60;;;12.90;99.90;;;;;;5045968;28;20424;-60
2021/05/19 05:52:09;;;;;;;3.60;3.30;;;12.80;99.90;;;;;;5054304;28;20183;-60
2021/05/19 05:54:34;;;;;;;3.70;3.40;;;12.90;99.90;;;;;;5055498;28;20209;-57
2021/05/19 05:57:00;;;;;;;7.53;3.43;;;12.70;99.90;;;;;;5054964;28;20186;-59
2021/05/19 05:59:26;;;;;;;3.77;3.30;;;12.70;99.90;;;;;;5053696;28;20558;-59
2021/05/19 06:01:51;;;;;;;3.87;3.53;;;12.60;99.90;;;;;;5053573;28;20205;-59
2021/05/19 06:04:17;;;;;;;5.47;3.40;;;12.60;99.90;;;;;;5052453;28;20265;-59
2021/05/19 06:06:43;;;;;;;6.53;3.70;;;12.70;99.90;;;;;;5053348;28;20459;-59
2021/05/19 06:09:08;;;;;;;4.10;3.80;;;12.70;99.90;;;;;;5053077;28;20167;-60
2021/05/19 06:11:34;;;;;;;4.40;4.00;;;12.70;99.90;;;;;;5052985;28;20181;-61
2021/05/19 06:13:59;;;;;;;7.13;4.00;;;12.70;99.90;;;;;;5053098;28;20258;-60
2021/05/19 06:16:25;;;;;;;3.93;3.63;;;12.70;99.90;;;;;;5051928;28;20544;-60
2021/05/19 06:18:51;;;;;;;3.70;3.40;;;12.60;99.90;;;;;;5053166;28;20612;-60
2021/05/19 06:21:16;;;;;;;3.93;3.63;;;12.60;99.90;;;;;;5053311;28;20203;-61
2021/05/19 06:23:42;;;;;;;3.70;3.40;;;12.70;99.90;;;;;;5052958;28;20170;-60
2021/05/19 06:26:07;;;;;;;4.47;4.07;;;12.80;99.90;;;;;;5053147;28;20203;-57
2021/05/19 06:28:33;;;;;;;4.90;4.50;;;12.70;99.90;;;;;;5055169;28;20599;-63
2021/05/19 06:30:59;;;;;;;3.60;3.30;;;12.80;99.90;;;;;;5057385;28;20178;-59
2021/05/19 06:33:24;;;;;;;4.43;4.13;;;12.60;99.90;;;;;;5056834;28;20593;-61
2021/05/19 06:35:50;;;;;;;4.23;3.50;;;12.60;99.90;;;;;;5056979;28;20463;-57
2021/05/19 06:38:16;;;;;;;4.97;4.50;;;12.70;99.90;;;;;;5056798;28;20208;-60
2021/05/19 06:40:42;;;;;;;3.70;3.40;;;13.00;99.90;;;;;;5056815;28;20490;-61
2021/05/19 06:43:09;;;;;;;5.07;3.63;;;13.20;99.90;;;;;;5056549;28;20600;-60
2021/05/19 06:45:35;;;;;;;5.93;4.00;;;13.60;99.90;;;;;;5056350;28;20594;-60
2021/05/19 06:48:01;;;;;;;3.87;3.57;;;13.60;99.90;;;;;;5056902;28;20506;-59
2021/05/19 06:50:27;;;;;;;4.77;4.27;;;14.20;99.90;;;;;;5056839;28;20448;-60
2021/05/19 06:52:53;;;;;;;3.47;3.17;;;14.30;99.90;;;;;;5056917;28;20958;-59
2021/05/19 06:55:19;;;;;;;7.70;3.80;;;14.40;99.90;;;;;;5056468;28;20434;-60
2021/05/19 06:57:45;;;;;;;3.77;3.47;;;14.50;99.90;;;;;;5056346;28;20205;-57
2021/05/19 07:00:11;;;;;;;3.23;2.93;;;14.80;99.90;;;;;;5055683;28;20418;-58
2021/05/19 07:02:40;;;;;;;4.77;4.00;;;14.90;99.90;;;;;;5055591;28;20670;-58
2021/05/19 07:05:09;;;;;;;3.50;3.20;;;15.00;99.90;;;;;;5056525;28;20610;-58
2021/05/19 07:07:35;;;;;;;3.80;3.50;;;15.00;99.90;;;;;;5057022;28;20415;-58
2021/05/19 07:10:01;;;;;;;4.50;2.80;;;14.80;99.90;;;;;;5056877;28;20806;-58
2021/05/19 07:12:27;;;;;;;3.53;3.20;;;14.40;99.90;;;;;;5056575;28;20420;-58
2021/05/19 07:15:00;;;;;;;4.40;2.70;;;14.20;99.90;;;;;;5080157;22;20484;-58
2021/05/19 07:17:25;;;;;;;3.37;3.07;;;14.30;99.90;;;;;;5056070;28;20200;-59
2021/05/19 07:19:51;;;;;;;3.10;2.80;;;14.40;99.90;;;;;;5056107;28;20533;-60
2021/05/19 07:22:16;;;;;;;2.53;2.33;;;14.70;99.90;;;;;;5056026;28;20169;-60
2021/05/19 07:24:43;;;;;;;2.93;2.73;;;15.10;99.90;;;;;;5056087;28;20216;-58
2021/05/19 07:27:09;;;;;;;3.53;2.77;;;15.60;99.90;;;;;;5055607;28;20174;-59
2021/05/19 07:29:36;;;;;;;2.73;2.53;;;16.00;99.90;;;;;;5056317;28;20405;-59
2021/05/19 07:32:02;;;;;;;3.80;3.00;;;16.10;99.90;;;;;;5056149;28;20239;-60
2021/05/19 07:34:28;;;;;;;3.40;2.90;;;15.70;99.90;;;;;;5055681;28;20427;-59
2021/05/19 07:36:53;;;;;;;5.07;3.30;;;15.40;99.90;;;;;;5055678;28;20893;-59
2021/05/19 07:39:19;;;;;;;4.87;3.83;;;14.80;99.90;;;;;;5055357;28;20200;-59
2021/05/19 07:41:45;;;;;;;4.33;3.90;;;14.20;99.90;;;;;;5055234;28;20594;-59
2021/05/19 07:44:11;;;;;;;4.30;3.40;;;13.90;99.90;;;;;;5056267;28;20430;-59
2021/05/19 07:46:38;;;;;;;6.23;2.87;;;14.10;99.90;;;;;;5055422;28;20179;-59
2021/05/19 07:49:04;;;;;;;5.40;3.20;;;14.20;99.90;;;;;;5055401;28;20517;-59
2021/05/19 07:51:30;;;;;;;3.97;3.57;;;14.30;99.90;;;;;;5055552;28;20407;-59
2021/05/19 07:53:55;;;;;;;4.53;4.10;;;14.00;99.90;;;;;;5055519;28;20931;-57
2021/05/19 07:56:56;;;;;;;3.47;3.17;;;13.90;99.90;;;;;;5055532;28;20664;-59
2021/05/19 07:59:16;;;;;;;3.93;3.50;;;13.60;99.90;;;;;;5054025;28;20215;-59
2021/05/19 08:02:02;;;;;;;4.63;3.53;;;13.70;99.90;;;;;;5055559;28;20454;-59
2021/05/19 08:04:29;;;;;;;4.93;3.40;;;14.00;99.90;;;;;;5055187;28;20391;-59
2021/05/19 08:06:55;;;;;;;4.07;3.70;;;14.40;99.90;;;;;;5055390;28;20412;-59
2021/05/19 08:09:21;;;;;;;5.10;3.70;;;14.60;99.90;;;;;;5055736;28;20452;-57
2021/05/19 08:11:47;;;;;;;4.47;4.07;;;14.90;99.90;;;;;;5049328;28;20424;-58
2021/05/19 08:14:12;;;;;;;4.27;3.37;;;15.10;99.90;;;;;;5048043;28;20177;-59
2021/05/19 08:16:38;;;;;;;6.17;3.83;;;14.90;99.90;;;;;;5055008;28;20826;-59
2021/05/19 08:19:04;;;;;;;4.33;3.30;;;15.10;99.90;;;;;;5054746;28;20199;-59
2021/05/19 08:21:29;;;;;;;2.70;2.50;;;15.00;99.90;;;;;;5055756;28;20204;-61
2021/05/19 08:23:55;;;;;;;7.40;3.50;;;15.00;99.90;;;;;;5055108;28;20226;-59
2021/05/19 08:26:20;;;;;;;3.77;3.37;;;14.80;99.90;;;;;;5054566;28;20186;-59
2021/05/19 08:28:47;;;;;;;6.13;3.20;;;15.00;99.90;;;;;;5054863;28;20175;-58
2021/05/19 08:31:13;;;;;;;4.07;2.97;;;15.20;99.90;;;;;;5055169;28;20659;-61
2021/05/19 08:33:40;;;;;;;3.57;3.27;;;15.10;99.90;;;;;;5054595;28;20819;-59
2021/05/19 08:36:06;;;;;;;3.43;2.90;;;15.00;99.90;;;;;;5054972;28;20441;-59
2021/05/19 08:38:35;;;;;;;3.57;3.27;;;15.40;99.90;;;;;;5054883;28;20461;-59
2021/05/19 08:41:04;;;;;;;4.77;3.33;;;15.40;99.90;;;;;;5054458;28;20260;-59
2021/05/19 08:43:30;;;;;;;3.40;2.87;;;15.00;99.90;;;;;;5054532;28;20406;-58
2021/05/19 08:45:55;;;;;;;2.83;2.57;;;15.10;99.90;;;;;;5054581;28;20436;-58
2021/05/19 08:48:23;;;;;;;3.30;3.00;;;15.30;99.90;;;;;;5054499;28;20409;-59
2021/05/19 08:50:49;;;;;;;3.30;3.00;;;15.20;99.90;;;;;;5054729;28;20217;-59
2021/05/19 08:53:16;;;;;;;3.90;3.17;;;15.20;99.90;;;;;;5054193;28;20807;-58
2021/05/19 08:55:41;;;;;;;3.97;3.33;;;15.40;99.90;;;;;;5054158;28;20197;-59
2021/05/19 08:58:07;;;;;;;2.90;2.30;;;15.60;99.90;;;;;;5054258;28;20613;-58
2021/05/19 09:00:34;;;;;;;3.27;2.90;;;15.40;99.90;;;;;;5054007;28;20170;-59
2021/05/19 09:03:08;;;;;;;4.70;2.90;;;15.30;99.90;;;;;;5053957;28;20227;-59
2021/05/19 09:05:34;;;;;;;3.50;2.03;;;15.40;99.90;;;;;;5053941;28;20935;-59
2021/05/19 09:08:08;;;;;;;2.57;2.37;;;15.30;99.90;;;;;;5053995;28;20411;-59
2021/05/19 09:10:35;;;;;;;4.70;2.73;;;15.30;99.90;;;;;;5053919;28;20434;-59
2021/05/19 09:13:01;;;;;;;3.87;2.77;;;15.20;99.90;;;;;;5054390;28;20494;-59
2021/05/19 09:15:45;;;;;;;4.33;2.80;;;15.30;99.90;;;;;;5053869;28;20952;-59
2021/05/19 09:18:11;;;;;;;3.50;2.07;;;15.20;99.90;;;;;;5053962;28;20948;-59
2021/05/19 09:20:45;;;;;;;2.70;1.93;;;14.90;99.90;;;;;;5053914;28;20410;-59
2021/05/19 09:23:17;;;;;;;3.03;1.60;;;14.60;99.90;;;;;;5050933;28;20920;-59
2021/05/19 09:25:43;;;;;;;3.90;1.57;;;14.80;99.90;;;;;;5053300;28;20420;-59
2021/05/19 09:28:09;;;;;;;2.40;1.57;;;14.80;99.90;;;;;;5053622;28;20406;-58
2021/05/19 09:30:45;;;;;;;3.70;1.77;;;15.00;99.90;;;;;;5053802;28;20492;-58
2021/05/19 09:33:18;;;;;;;2.27;1.47;;;15.30;99.90;;;;;;5053448;28;20404;-59
2021/05/19 09:36:06;;;;;;;3.73;1.63;;;15.40;99.90;;;;;;5054545;28;20417;-59
2021/05/19 09:38:32;;;;;;;1.87;1.53;;;15.50;99.90;;;;;;5035679;28;20490;-59
2021/05/19 09:41:20;;;;;;;2.70;1.53;;;15.60;99.90;;;;;;5053391;28;20446;-59
2021/05/19 09:43:47;;;;;;;1.70;1.40;;;15.40;99.90;;;;;;5053650;28;20568;-58
2021/05/19 09:46:17;;;;;;;1.53;1.27;;;15.20;99.90;;;;;;5053298;28;20426;-59
2021/05/19 09:48:43;;;;;;;2.03;1.60;;;15.40;99.90;;;;;;5053428;28;20899;-59
2021/05/19 09:51:09;;;;;;;1.70;1.43;;;15.40;99.90;;;;;;5053399;28;20897;-59
2021/05/19 09:53:35;;;;;;;3.27;1.53;;;15.70;99.90;;;;;;5053494;28;20440;-59
2021/05/19 09:56:00;;;;;;;2.20;1.70;;;15.90;99.90;;;;;;5035168;28;20206;-58
2021/05/19 09:58:35;;;;;;;5.00;1.40;;;16.00;99.90;;;;;;5053077;28;20458;-58
2021/05/19 10:01:01;;;;;;;2.27;1.40;;;16.50;99.60;;;;;;5053800;28;20628;-58
2021/05/19 10:03:26;;;;;;;2.90;2.10;;;16.70;99.90;;;;;;5052709;28;20427;-57
2021/05/19 10:06:02;;;;;;;2.53;1.13;;;16.80;99.90;;;;;;5053163;28;20191;-58
2021/05/19 10:08:27;;;;;;;2.70;1.20;;;16.40;99.00;;;;;;5053702;28;20168;-60
2021/05/19 10:11:01;;;;;;;1.53;1.30;;;16.30;98.20;;;;;;5052761;28;20446;-59
2021/05/19 10:13:29;;;;;;;1.20;1.03;;;16.30;98.50;;;;;;5053212;28;20411;-57
2021/05/19 10:15:57;;;;;;;0.80;0.80;;;16.60;97.00;;;;;;5052887;28;20553;-59
2021/05/19 10:18:25;;;;;;;1.00;0.80;;;16.40;95.90;;;;;;5052884;28;20447;-59
2021/05/19 10:20:55;;;;;;;2.47;1.13;;;16.50;96.70;;;;;;5053003;28;20871;-59
2021/05/19 10:23:38;;;;;;;1.33;1.00;;;16.40;97.00;;;;;;5052916;28;20410;-60
2021/05/19 10:26:10;;;;;;;3.40;1.30;;;16.60;97.20;;;;;;5052874;28;20467;-60
2021/05/19 10:28:46;;;;;;;3.17;1.43;;;16.80;95.90;;;;;;5053247;28;20381;-60
2021/05/19 10:31:30;;;;;;;2.57;0.77;;;16.90;95.10;;;;;;5053185;28;20739;-58
2021/05/19 10:34:05;;;;;;;1.10;0.80;;;16.90;94.90;;;;;;5034791;28;20420;-59
2021/05/19 10:36:35;;;;;;;1.40;1.00;;;17.10;92.50;;;;;;5052940;28;20424;-60
2021/05/19 10:39:07;;;;;;;2.13;1.20;;;17.20;92.00;;;;;;5052937;28;20883;-59
2021/05/19 10:41:37;;;;;;;1.33;0.90;;;17.10;93.20;;;;;;5052457;28;20913;-59
2021/05/19 10:44:10;;;;;;;1.87;0.90;;;17.30;93.40;;;;;;5052865;28;20900;-58
2021/05/19 10:46:58;;;;;;;4.07;0.97;;;17.60;94.90;;;;;;5052653;28;20416;-60
2021/05/19 10:49:58;;;;;;;2.87;1.00;;;17.40;91.50;;;;;;5051936;28;20411;-60
2021/05/19 10:57:42;;;;;;;1.23;0.90;;;17.20;92.60;;;;;;5052850;28;20201;-58
2021/05/19 11:00:17;;;;;;;1.20;1.00;;;17.40;92.80;;;;;;5052767;28;20507;-60
2021/05/19 11:02:52;;;;;;;3.30;0.97;;;17.60;91.60;;;;;;5052582;28;20564;-60
2021/05/19 11:05:18;;;;;;;1.10;1.00;;;17.80;92.00;;;;;;5051411;28;20440;-60
2021/05/19 11:08:10;;;;;;;1.70;0.90;;;17.90;92.20;;;;;;5052340;28;20540;-58
2021/05/19 11:10:43;;;;;;;5.10;1.20;;;18.10;91.90;;;;;;5052600;28;20417;-60
2021/05/19 11:13:09;;;;;;;4.90;1.10;;;18.10;91.00;;;;;;5052363;28;20459;-60
2021/05/19 11:19:22;;;;;;;3.23;1.10;;;18.20;91.50;;;;;;5055963;28;20316;-59
2021/05/19 11:21:23;;;;;;;1.70;1.40;;;18.60;92.50;;;;;;5048443;28;20444;-60
2021/05/19 11:24:02;;;;;;;1.87;1.10;;;19.20;90.60;;;;;;5055369;28;20401;-60
2021/05/19 11:26:34;;;;;;;2.10;1.23;;;20.40;89.20;;;;;;5056200;28;20822;-60
2021/05/19 11:29:00;;;;;;;2.90;1.07;;;21.00;84.80;;;;;;5056140;28;20405;-60
2021/05/19 11:31:33;;;;;;;1.43;0.93;;;21.60;74.10;;;;;;5055766;28;20501;-60
2021/05/19 11:34:02;;;;;;;2.30;1.30;;;22.40;68.60;;;;;;5055439;28;20389;-60
2021/05/19 11:36:42;;;;;;;4.60;1.20;;;22.80;65.90;;;;;;5055683;28;20452;-58
2021/05/19 11:39:39;;;;;;;2.70;1.03;;;23.80;65.40;;;;;;5055887;28;20444;-60
2021/05/19 11:42:25;;;;;;;2.60;1.23;;;25.80;63.50;;;;;;5055645;28;20393;-60
2021/05/19 11:44:54;;;;;;;4.27;1.20;;;25.20;60.60;;;;;;5055438;28;20448;-60
2021/05/19 11:47:33;;;;;;;1.60;0.93;;;24.60;57.10;;;;;;5055700;28;20416;-60
2021/05/19 11:50:17;;;;;;;3.10;1.00;;;25.00;58.40;;;;;;5055015;28;20381;-60
2021/05/19 11:52:57;;;;;;;2.30;1.00;;;25.30;60.70;;;;;;5056027;28;20443;-60
2021/05/19 11:55:30;;;;;;;1.80;1.00;;;24.20;60.60;;;;;;5055803;28;20421;-58
2021/05/19 11:58:13;;;;;;;1.50;1.10;;;22.50;61.70;;;;;;5055470;28;20941;-58
2021/05/19 12:00:44;;;;;;;3.80;1.10;;;22.70;65.10;;;;;;5046055;28;20411;-60
2021/05/19 12:03:11;;;;;;;2.60;1.10;;;24.10;58.50;;;;;;5054107;28;20420;-60
2021/05/19 12:05:47;;;;;;;2.87;0.97;;;25.70;58.20;;;;;;5055144;28;20944;-60
2021/05/19 12:08:13;;;;;;;2.33;1.27;;;25.60;55.40;;;;;;5054031;28;20404;-60
2021/05/19 12:10:41;;;;;;;2.33;1.10;;;25.60;57.00;;;;;;5054005;28;20498;-60
2021/05/19 12:13:07;;;;;;;1.90;1.10;;;27.00;53.50;;;;;;5049839;28;20501;-60
2021/05/19 12:15:34;;;;;;;4.23;1.03;;;26.20;54.00;;;;;;5054659;28;20530;-58
2021/05/19 12:18:01;;;;;;;1.67;1.03;;;26.30;52.80;;;;;;5054789;28;20791;-58
2021/05/19 12:20:27;;;;;;;1.80;1.20;;;25.20;54.60;;;;;;5036163;28;20933;-61
2021/05/19 12:23:00;;;;;;;5.90;2.27;;;25.50;53.10;;;;;;5054399;28;20420;-59
2021/05/19 12:25:26;;;;;;;2.07;0.87;;;25.80;53.40;;;;;;5053619;28;20957;-59
2021/05/19 12:27:56;;;;;;;1.73;0.90;;;26.60;51.60;;;;;;5053172;28;20932;-59
2021/05/19 12:30:22;;;;;;;2.30;1.10;;;26.50;50.30;;;;;;5053665;28;21047;-59
2021/05/19 12:33:05;;;;;;;1.57;0.90;;;25.80;51.00;;;;;;5053811;28;20439;-59
2021/05/19 12:35:31;;;;;;;2.50;1.30;;;24.90;52.90;;;;;;5054435;28;20428;-57
2021/05/19 12:38:02;;;;;;;1.93;1.20;;;24.90;52.40;;;;;;5054874;28;20580;-58
2021/05/19 12:40:31;;;;;;;2.73;1.20;;;25.50;50.90;;;;;;5053151;28;20205;-59
2021/05/19 12:43:00;;;;;;;3.13;2.10;;;25.20;53.40;;;;;;5036745;28;20447;-59
2021/05/19 12:45:31;;;;;;;2.50;1.43;;;25.70;51.10;;;;;;5054684;28;20417;-59
2021/05/19 12:48:15;;;;;;;2.13;1.03;;;25.30;52.80;;;;;;5054310;28;20408;-58
2021/05/19 12:51:01;;;;;;;2.73;1.00;;;25.40;53.30;;;;;;5054628;28;20764;-59
2021/05/19 12:53:42;;;;;;;1.40;1.03;;;25.20;52.80;;;;;;5054072;28;20416;-58
2021/05/19 12:56:11;;;;;;;2.77;1.07;;;25.60;52.40;;;;;;5055032;28;20432;-60
2021/05/19 12:59:09;;;;;;;1.63;0.73;;;26.60;50.20;;;;;;5053952;28;20448;-59
2021/05/19 13:01:48;;;;;;;2.00;1.13;;;26.50;47.90;;;;;;5054424;28;20725;-59
2021/05/19 13:04:15;;;;;;;1.93;1.00;;;24.60;48.50;;;;;;5053917;28;20742;-59
2021/05/19 13:06:41;;;;;;;1.47;1.00;;;25.10;51.00;;;;;;5054039;28;20952;-60